createdAt,value
2022-10-19T00:01:03.872Z,101599.97
2022-10-19T00:03:33.800Z,101598.22
2022-10-19T00:06:03.485Z,101600.81
2022-10-19T00:08:33.077Z,101594.63
2022-10-19T00:11:03.980Z,101601.69
2022-10-19T00:13:33.975Z,101602.66
2022-10-19T00:16:11.603Z,101605.38
2022-10-19T00:18:43.302Z,101598.44
2022-10-19T00:21:14.538Z,101590.59
2022-10-19T00:23:44.516Z,101595.97
2022-10-19T00:26:14.118Z,101591.66
2022-10-19T00:28:43.694Z,101596.94
2022-10-19T00:31:18.402Z,101590.84
2022-10-19T00:33:49.268Z,101594.41
2022-10-19T00:36:20.301Z,101590.91
2022-10-19T00:38:50.352Z,101591.75
2022-10-19T00:41:21.193Z,101590.88
2022-10-19T00:43:58.802Z,101590.00
2022-10-19T00:46:32.743Z,101591.78
2022-10-19T00:49:07.103Z,101596.22
2022-10-19T00:51:42.373Z,101594.38
2022-10-19T00:54:12.564Z,101591.72
2022-10-19T00:56:43.773Z,101591.63
2022-10-19T00:59:14.012Z,101597.72
2022-10-19T01:01:47.381Z,101589.69
2022-10-19T01:04:17.208Z,101585.25
2022-10-19T01:06:46.813Z,101582.56
2022-10-19T01:09:16.837Z,101581.69
2022-10-19T01:11:55.990Z,101576.38
2022-10-19T01:14:34.075Z,101576.34
2022-10-19T01:17:13.116Z,101578.03
2022-10-19T01:20:09.880Z,101577.09
2022-10-19T01:22:53.308Z,101577.97
2022-10-19T01:25:25.858Z,101583.25
2022-10-19T01:28:21.061Z,101581.53
2022-10-19T01:30:56.154Z,101582.50
2022-10-19T01:33:35.041Z,101575.47
2022-10-19T01:36:09.371Z,101581.56
2022-10-19T01:38:41.250Z,101580.69
2022-10-19T01:41:17.906Z,101574.53
2022-10-19T01:43:51.725Z,101573.66
2022-10-19T01:46:26.519Z,101575.41
2022-10-19T01:48:59.541Z,101579.81
2022-10-19T01:51:33.075Z,101562.19
2022-10-19T01:54:06.260Z,101562.22
2022-10-19T01:56:37.243Z,101559.63
2022-10-19T01:59:09.711Z,101555.31
2022-10-19T02:01:45.191Z,101556.25
2022-10-19T02:04:16.332Z,101551.84
2022-10-19T02:06:46.158Z,101548.38
2022-10-19T02:09:18.293Z,101552.78
2022-10-19T02:11:50.480Z,101551.03
2022-10-19T02:14:24.788Z,101544.94
2022-10-19T02:17:00.696Z,101540.50
2022-10-19T02:19:30.731Z,101537.84
2022-10-19T02:22:00.509Z,101534.31
2022-10-19T02:24:30.176Z,101535.19
2022-10-19T02:27:00.594Z,101537.00
2022-10-19T02:29:30.352Z,101536.13
2022-10-19T02:32:02.806Z,101530.91
2022-10-19T02:34:32.621Z,101533.56
2022-10-19T02:37:02.371Z,101534.44
2022-10-19T02:39:32.171Z,101533.59
2022-10-19T02:42:06.887Z,101533.63
2022-10-19T02:44:41.280Z,101529.19
2022-10-19T02:47:16.323Z,101518.63
2022-10-19T02:49:46.710Z,101518.63
2022-10-19T02:52:16.548Z,101521.25
2022-10-19T02:54:47.249Z,101510.81
2022-10-19T02:57:20.854Z,101507.31
2022-10-19T02:59:50.506Z,101510.91
2022-10-19T03:02:23.615Z,101505.66
2022-10-19T03:04:53.157Z,101515.38
2022-10-19T03:07:24.051Z,101515.44
2022-10-19T03:09:54.279Z,101521.63
2022-10-19T03:12:23.853Z,101521.66
2022-10-19T03:14:53.467Z,101511.19
2022-10-19T03:17:25.581Z,101505.97
2022-10-19T03:19:55.111Z,101507.84
2022-10-19T03:22:24.652Z,101515.84
2022-10-19T03:24:54.238Z,101508.97
2022-10-19T03:27:23.776Z,101512.56
2022-10-19T03:29:53.319Z,101508.28
2022-10-19T03:32:25.498Z,101510.09
2022-10-19T03:34:55.061Z,101501.44
2022-10-19T03:37:24.707Z,101508.53
2022-10-19T03:39:54.981Z,101503.31
2022-10-19T03:42:24.520Z,101522.63
2022-10-19T03:44:54.078Z,101519.97
2022-10-19T03:47:26.233Z,101526.09
2022-10-19T03:49:55.781Z,101526.16
2022-10-19T03:52:25.288Z,101537.56
2022-10-19T03:54:54.873Z,101527.91
2022-10-19T03:57:24.428Z,101525.31
2022-10-19T03:59:53.989Z,101529.78
2022-10-19T04:02:26.608Z,101532.44
2022-10-19T04:04:56.604Z,101535.13
2022-10-19T04:07:26.184Z,101540.41
2022-10-19T04:09:56.325Z,101535.19
2022-10-19T04:12:25.837Z,101541.38
2022-10-19T04:14:57.795Z,101537.88
2022-10-19T04:17:30.588Z,101541.38
2022-10-19T04:20:00.229Z,101539.66
2022-10-19T04:22:29.734Z,101544.09
2022-10-19T04:24:59.272Z,101541.47
2022-10-19T04:27:28.780Z,101532.75
2022-10-19T04:29:58.348Z,101525.75
2022-10-19T04:32:30.516Z,101519.56
2022-10-19T04:35:00.077Z,101525.66
2022-10-19T04:37:29.606Z,101535.19
2022-10-19T04:39:59.149Z,101530.69
2022-10-19T04:42:28.696Z,101526.22
2022-10-19T04:44:58.238Z,101525.22
2022-10-19T04:47:31.840Z,101519.84
2022-10-19T04:50:01.635Z,101521.53
2022-10-19T04:52:31.264Z,101515.28
2022-10-19T04:55:00.816Z,101523.94
2022-10-19T04:57:30.431Z,101515.97
2022-10-19T05:00:00.023Z,101512.41
2022-10-19T05:02:32.118Z,101509.75
2022-10-19T05:05:01.654Z,101501.84
2022-10-19T05:07:31.416Z,101495.66
2022-10-19T05:10:01.156Z,101506.22
2022-10-19T05:12:30.696Z,101504.44
2022-10-19T05:15:00.243Z,101503.59
2022-10-19T05:17:33.929Z,101497.44
2022-10-19T05:20:03.661Z,101500.03
2022-10-19T05:22:33.167Z,101495.66
2022-10-19T05:25:02.707Z,101493.03
2022-10-19T05:27:32.552Z,101488.63
2022-10-19T05:30:02.381Z,101486.00
2022-10-19T05:32:34.528Z,101486.00
2022-10-19T05:35:04.106Z,101488.59
2022-10-19T05:37:33.846Z,101496.53
2022-10-19T05:40:03.575Z,101494.78
2022-10-19T05:42:33.126Z,101494.72
2022-10-19T05:45:03.189Z,101495.56
2022-10-19T05:47:37.315Z,101484.09
2022-10-19T05:50:07.869Z,101483.19
2022-10-19T05:52:37.928Z,101485.81
2022-10-19T05:55:08.700Z,101491.06
2022-10-19T05:57:38.233Z,101491.03
2022-10-19T06:00:08.795Z,101490.16
2022-10-19T06:02:43.945Z,101494.53
2022-10-19T06:05:13.507Z,101494.53
2022-10-19T06:07:43.003Z,101499.84
2022-10-19T06:10:13.002Z,101499.84
2022-10-19T06:12:42.504Z,101494.63
2022-10-19T06:15:12.966Z,101489.34
2022-10-19T06:17:45.090Z,101489.38
2022-10-19T06:20:15.065Z,101485.91
2022-10-19T06:22:44.614Z,101482.41
2022-10-19T06:25:17.989Z,101477.13
2022-10-19T06:27:50.174Z,101485.91
2022-10-19T06:30:20.025Z,101488.47
2022-10-19T06:32:52.289Z,101487.34
2022-10-19T06:35:22.043Z,101482.41
2022-10-19T06:37:51.611Z,101479.81
2022-10-19T06:40:21.176Z,101473.47
2022-10-19T06:42:50.731Z,101488.13
2022-10-19T06:45:20.524Z,101492.31
2022-10-19T06:47:52.662Z,101491.03
2022-10-19T06:50:23.148Z,101496.56
2022-10-19T06:52:52.674Z,101492.19
2022-10-19T06:55:22.338Z,101492.19
2022-10-19T06:57:51.872Z,101482.59
2022-10-19T07:00:21.485Z,101479.94
2022-10-19T07:02:53.602Z,101476.31
2022-10-19T07:05:23.162Z,101473.59
2022-10-19T07:07:52.822Z,101465.69
2022-10-19T07:10:22.414Z,101467.97
2022-10-19T07:12:52.021Z,101467.72
2022-10-19T07:15:21.557Z,101467.50
2022-10-19T07:17:55.676Z,101468.81
2022-10-19T07:20:25.215Z,101475.81
2022-10-19T07:22:54.786Z,101475.41
2022-10-19T07:25:25.002Z,101477.47
2022-10-19T07:27:54.540Z,101474.25
2022-10-19T07:30:24.187Z,101472.63
2022-10-19T07:32:56.364Z,101472.41
2022-10-19T07:35:25.885Z,101479.88
2022-10-19T07:37:55.446Z,101492.13
2022-10-19T07:40:24.962Z,101486.38
2022-10-19T07:42:54.490Z,101495.91
2022-10-19T07:45:24.224Z,101498.53
2022-10-19T07:47:56.394Z,101489.97
2022-10-19T07:50:27.701Z,101495.63
2022-10-19T07:52:58.075Z,101499.13
2022-10-19T07:55:27.706Z,101497.88
2022-10-19T07:58:01.501Z,101495.00
2022-10-19T08:00:30.865Z,101491.13
2022-10-19T08:05:52.547Z,101492.59
2022-10-19T08:08:22.140Z,101488.06
2022-10-19T08:10:51.695Z,101494.84
2022-10-19T08:13:21.259Z,101495.16
2022-10-19T08:15:50.949Z,101489.66
2022-10-19T08:18:23.645Z,101487.16
2022-10-19T08:20:53.254Z,101480.03
2022-10-19T08:23:22.999Z,101476.28
2022-10-19T08:25:52.773Z,101472.00
2022-10-19T08:28:22.363Z,101471.88
2022-10-19T08:30:52.006Z,101473.00
2022-10-19T08:33:24.140Z,101469.06
2022-10-19T08:35:53.964Z,101461.84
2022-10-19T08:38:23.620Z,101457.25
2022-10-19T08:40:53.172Z,101460.19
2022-10-19T08:43:27.035Z,101462.78
2022-10-19T08:46:00.124Z,101466.53
2022-10-19T08:48:36.762Z,101464.81
2022-10-19T08:51:09.392Z,101455.91
2022-10-19T08:53:48.936Z,101453.72
2022-10-19T08:56:49.854Z,101442.25
2022-10-19T08:59:19.474Z,101437.22
2022-10-19T09:01:53.325Z,101435.69
2022-10-19T09:04:28.088Z,101433.88
2022-10-19T09:07:12.872Z,101432.59
2022-10-19T09:12:43.472Z,101431.34
2022-10-19T09:15:16.094Z,101430.69
2022-10-19T09:17:45.700Z,101424.47
2022-10-19T09:20:22.956Z,101411.53
2022-10-19T09:23:01.920Z,101414.06
2022-10-19T09:25:33.405Z,101409.03
2022-10-19T09:28:09.458Z,101405.75
2022-10-19T09:30:40.175Z,101414.78
2022-10-19T09:33:19.302Z,101407.25
2022-10-19T09:35:51.528Z,101412.06
2022-10-19T09:38:22.382Z,101422.50
2022-10-19T09:40:51.917Z,101418.56
2022-10-19T09:43:22.583Z,101415.03
2022-10-19T09:45:54.854Z,101410.13
2022-10-19T09:48:30.811Z,101417.94
2022-10-19T09:51:04.728Z,101416.50
2022-10-19T09:53:34.354Z,101414.28
2022-10-19T09:56:08.522Z,101407.50
2022-10-19T09:58:38.500Z,101415.03
2022-10-19T10:01:08.348Z,101408.88
2022-10-19T10:03:40.807Z,101406.59
2022-10-19T10:06:16.171Z,101409.50
2022-10-19T10:08:49.305Z,101406.38
2022-10-19T10:11:26.413Z,101414.16
2022-10-19T10:13:57.710Z,101409.53
2022-10-19T10:16:33.754Z,101406.16
2022-10-19T10:19:06.932Z,101402.78
2022-10-19T10:21:50.313Z,101401.03
2022-10-19T10:24:21.325Z,101398.41
2022-10-19T10:26:52.624Z,101398.03
2022-10-19T10:29:24.367Z,101404.88
2022-10-19T10:31:55.674Z,101399.63
2022-10-19T10:34:51.932Z,101407.38
2022-10-19T10:37:27.544Z,101405.25
2022-10-19T10:40:02.021Z,101403.41
2022-10-19T10:42:38.143Z,101396.84
2022-10-19T10:45:19.046Z,101388.53
2022-10-19T10:47:49.152Z,101375.00
2022-10-19T10:50:24.050Z,101389.75
2022-10-19T10:53:04.194Z,101375.09
2022-10-19T10:55:34.871Z,101385.00
2022-10-19T10:58:13.178Z,101374.38
2022-10-19T11:00:43.790Z,101376.34
2022-10-19T11:03:17.583Z,101376.50
2022-10-19T11:05:48.829Z,101372.31
2022-10-19T11:08:25.297Z,101368.69
2022-10-19T11:10:59.323Z,101361.34
2022-10-19T11:13:29.381Z,101363.84
2022-10-19T11:16:01.890Z,101352.22
2022-10-19T11:18:33.480Z,101346.72
2022-10-19T11:21:08.525Z,101339.53
2022-10-19T11:23:54.325Z,101329.53
2022-10-19T11:26:36.176Z,101336.31
2022-10-19T11:29:17.049Z,101326.31
2022-10-19T11:31:51.088Z,101318.22
2022-10-19T11:34:27.245Z,101317.16
2022-10-19T11:37:00.451Z,101313.34
2022-10-19T11:39:42.822Z,101314.75
2022-10-19T11:42:20.905Z,101308.19
2022-10-19T11:45:01.136Z,101300.03
2022-10-19T11:47:43.285Z,101303.41
2022-10-19T11:50:32.475Z,101291.69
2022-10-19T11:53:10.292Z,101296.16
2022-10-19T11:55:47.478Z,101292.72
2022-10-19T11:58:34.894Z,101300.09
2022-10-19T12:01:15.444Z,101297.59
2022-10-19T12:04:06.828Z,101277.16
2022-10-19T12:06:42.764Z,101273.38
2022-10-19T12:09:21.538Z,101278.56
2022-10-19T12:12:05.750Z,101264.09
2022-10-19T12:14:38.724Z,101264.88
2022-10-19T12:17:10.541Z,101261.19
2022-10-19T12:19:43.062Z,101253.25
2022-10-19T12:22:18.040Z,101262.13
2022-10-19T12:24:48.450Z,101261.09
2022-10-19T12:27:24.047Z,101255.59
2022-10-19T12:29:53.672Z,101250.16
2022-10-19T12:32:24.603Z,101243.00
2022-10-19T12:34:59.244Z,101234.03
2022-10-19T12:37:34.465Z,101226.00
2022-10-19T12:40:08.149Z,101219.81
2022-10-19T12:42:51.396Z,101220.66
2022-10-19T12:45:30.405Z,101210.13
2022-10-19T12:48:19.008Z,101204.78
2022-10-19T12:51:03.925Z,101199.53
2022-10-19T12:53:36.238Z,101196.00
2022-10-19T12:56:07.623Z,101192.31
2022-10-19T12:58:48.123Z,101186.88
2022-10-19T13:01:21.227Z,101184.13
2022-10-19T13:03:52.556Z,101178.50
2022-10-19T13:06:33.566Z,101177.22
2022-10-19T13:09:06.185Z,101173.50
2022-10-19T13:11:36.144Z,101172.47
2022-10-19T13:14:10.159Z,101168.00
2022-10-19T13:17:00.075Z,101165.41
2022-10-19T13:19:30.236Z,101166.50
2022-10-19T13:22:26.705Z,101152.38
2022-10-19T13:25:29.577Z,101159.63
2022-10-19T13:28:03.023Z,101151.88
2022-10-19T13:31:11.558Z,101148.50
2022-10-19T13:33:52.991Z,101139.94
2022-10-19T13:36:23.581Z,101142.78
2022-10-19T13:39:13.040Z,101130.63
2022-10-19T13:42:03.288Z,101140.72
2022-10-19T13:44:37.522Z,101137.28
2022-10-19T13:47:22.884Z,101133.81
2022-10-19T13:50:19.646Z,101125.03
2022-10-19T13:53:19.546Z,101129.50
2022-10-19T13:56:02.248Z,101132.34
2022-10-19T13:58:48.772Z,101130.69
2022-10-19T14:01:28.704Z,101127.34
2022-10-19T14:04:10.977Z,101119.47
2022-10-19T14:06:46.107Z,101125.81
2022-10-19T14:09:28.342Z,101128.66
2022-10-19T14:12:06.790Z,101120.81
2022-10-19T14:17:21.247Z,101118.47
2022-10-19T14:19:55.400Z,101119.56
2022-10-19T14:22:30.105Z,101117.97
2022-10-19T14:25:04.129Z,101118.00
2022-10-19T14:27:33.868Z,101123.53
2022-10-19T14:30:03.781Z,101120.19
2022-10-19T14:32:36.140Z,101113.19
2022-10-19T14:35:21.937Z,101114.03
2022-10-19T14:37:51.939Z,101100.88
2022-10-19T14:40:30.348Z,101100.06
2022-10-19T14:43:01.076Z,101096.72
2022-10-19T14:45:32.562Z,101092.41
2022-10-19T14:48:03.739Z,101091.69
2022-10-19T14:50:44.548Z,101089.19
2022-10-19T14:53:28.312Z,101085.72
2022-10-19T14:56:01.041Z,101090.31
2022-10-19T14:58:37.456Z,101084.97
2022-10-19T15:01:07.263Z,101070.69
2022-10-19T15:03:40.212Z,101064.28
2022-10-19T15:06:21.097Z,101060.50
2022-10-19T15:11:28.620Z,101068.03
2022-10-19T15:14:00.655Z,101058.16
2022-10-19T15:16:33.242Z,101063.41
2022-10-19T15:19:06.405Z,101061.59
2022-10-19T15:21:38.551Z,101056.16
2022-10-19T15:24:18.948Z,101051.78
2022-10-19T15:27:06.602Z,101050.91
2022-10-19T15:29:38.583Z,101052.72
2022-10-19T15:32:18.733Z,101046.59
2022-10-19T15:34:48.714Z,101046.75
2022-10-19T15:40:16.931Z,101031.84
2022-10-19T15:42:48.841Z,101034.63
2022-10-19T15:45:32.995Z,101035.56
2022-10-19T15:48:18.776Z,101033.91
2022-10-19T15:50:50.222Z,101032.44
2022-10-19T15:53:23.744Z,101024.84
2022-10-19T15:55:53.391Z,101023.53
2022-10-19T15:58:23.064Z,101018.91
2022-10-19T16:00:52.649Z,101009.75
2022-10-19T16:03:23.157Z,101002.31
2022-10-19T16:05:52.860Z,101004.66
2022-10-19T16:08:25.090Z,101002.59
2022-10-19T16:10:54.708Z,100998.66
2022-10-19T16:13:24.270Z,100995.84
2022-10-19T16:16:01.430Z,100998.19
2022-10-19T16:18:40.239Z,101005.97
2022-10-19T16:21:10.457Z,101006.56
2022-10-19T16:23:42.667Z,101008.00
2022-10-19T16:26:12.457Z,101000.53
2022-10-19T16:28:41.998Z,101001.06
2022-10-19T16:31:11.633Z,100984.84
2022-10-19T16:33:41.183Z,100982.66
2022-10-19T16:36:11.839Z,100981.38
2022-10-19T16:38:44.091Z,100986.13
2022-10-19T16:41:13.956Z,100984.69
2022-10-19T16:43:43.659Z,100980.75
2022-10-19T16:46:13.420Z,100982.00
2022-10-19T16:48:42.932Z,100977.03
2022-10-19T16:51:23.938Z,100983.59
2022-10-19T16:53:57.617Z,100973.31
2022-10-19T16:56:28.708Z,100980.69
2022-10-19T16:58:59.903Z,100986.25
2022-10-19T17:01:30.031Z,100981.16
2022-10-19T17:03:59.664Z,100986.56
2022-10-19T17:06:30.546Z,100983.38
2022-10-19T17:09:30.247Z,100988.94
2022-10-19T17:11:52.416Z,100985.47
2022-10-19T17:14:21.941Z,100987.34
2022-10-19T17:16:51.533Z,100989.31
2022-10-19T17:19:21.049Z,100982.28
2022-10-19T17:21:50.579Z,100981.56
2022-10-19T17:24:23.190Z,100981.56
2022-10-19T17:26:53.772Z,100978.97
2022-10-19T17:29:24.230Z,100974.66
2022-10-19T17:31:54.006Z,100969.34
2022-10-19T17:34:23.900Z,100972.06
2022-10-19T17:36:53.419Z,100974.75
2022-10-19T17:39:29.224Z,100966.00
2022-10-19T17:42:02.031Z,100967.84
2022-10-19T17:44:32.703Z,100960.88
2022-10-19T17:47:02.556Z,100960.91
2022-10-19T17:49:32.143Z,100968.97
2022-10-19T17:52:01.705Z,100964.59
2022-10-19T17:54:43.459Z,100961.16
2022-10-19T17:57:23.334Z,100954.19
2022-10-19T17:59:53.291Z,100955.03
2022-10-19T18:02:23.046Z,100958.56
2022-10-19T18:04:52.560Z,100955.09
2022-10-19T18:07:25.643Z,100958.66
2022-10-19T18:09:57.744Z,100955.22
2022-10-19T18:12:27.281Z,100952.63
2022-10-19T18:14:56.852Z,100954.47
2022-10-19T18:17:27.770Z,100967.94
2022-10-19T18:19:57.549Z,100973.31
2022-10-19T18:22:27.102Z,100970.78
2022-10-19T18:24:59.228Z,100966.47
2022-10-19T18:27:28.799Z,100961.25
2022-10-19T18:29:58.360Z,100961.38
2022-10-19T18:32:28.025Z,100958.78
2022-10-19T18:34:57.511Z,100950.03
2022-10-19T18:37:28.705Z,100946.56
2022-10-19T18:40:00.828Z,100941.47
2022-10-19T18:42:30.610Z,100942.53
2022-10-19T18:45:00.134Z,100947.19
2022-10-19T18:47:29.655Z,100950.81
2022-10-19T18:49:59.159Z,100944.75
2022-10-19T18:52:28.782Z,100951.16
2022-10-19T18:55:00.994Z,100943.31
2022-10-19T18:57:31.826Z,100951.50
2022-10-19T19:00:01.642Z,100949.09
2022-10-19T19:02:42.258Z,100943.22
2022-10-19T19:05:15.971Z,100934.56
2022-10-19T19:07:45.489Z,100928.56
2022-10-19T19:10:18.175Z,100929.66
2022-10-19T19:12:47.711Z,100924.53
2022-10-19T19:15:17.287Z,100928.22
2022-10-19T19:17:47.565Z,100913.34
2022-10-19T19:20:17.100Z,100909.88
2022-10-19T19:22:46.687Z,100905.59
2022-10-19T19:25:18.825Z,100898.81
2022-10-19T19:27:48.398Z,100897.34
2022-10-19T19:30:18.017Z,100894.75
2022-10-19T19:32:47.548Z,100902.75
2022-10-19T19:35:17.248Z,100899.34
2022-10-19T19:37:46.875Z,100883.56
2022-10-19T19:40:19.417Z,100879.19
2022-10-19T19:42:49.463Z,100874.00
2022-10-19T19:45:19.055Z,100875.91
2022-10-19T19:47:48.645Z,100879.59
2022-10-19T19:50:18.266Z,100885.06
2022-10-19T19:52:48.592Z,100888.78
2022-10-19T19:55:20.761Z,100896.88
2022-10-19T19:57:53.901Z,100898.78
2022-10-19T20:00:23.737Z,100893.47
2022-10-19T20:02:56.882Z,100879.41
2022-10-19T20:05:26.924Z,100871.59
2022-10-19T20:07:56.516Z,100871.69
2022-10-19T20:10:28.874Z,100863.88
2022-10-19T20:12:58.459Z,100868.22
2022-10-19T20:15:27.984Z,100862.94
2022-10-19T20:17:57.545Z,100867.25
2022-10-19T20:20:27.121Z,100861.00
2022-10-19T20:22:56.723Z,100854.03
2022-10-19T20:25:28.878Z,100857.63
2022-10-19T20:27:58.477Z,100862.13
2022-10-19T20:30:27.983Z,100856.91
2022-10-19T20:32:58.745Z,100861.31
2022-10-19T20:35:28.584Z,100850.66
2022-10-19T20:37:58.623Z,100850.63
2022-10-19T20:40:30.738Z,100850.53
2022-10-19T20:43:00.301Z,100848.69
2022-10-19T20:45:29.862Z,100842.53
2022-10-19T20:47:59.427Z,100836.47
2022-10-19T20:50:28.982Z,100831.13
2022-10-19T20:52:58.492Z,100828.38
2022-10-19T20:55:30.702Z,100823.88
2022-10-19T20:58:00.221Z,100813.25
2022-10-19T21:00:29.771Z,100812.34
2022-10-19T21:02:59.489Z,100800.84
2022-10-19T21:05:29.436Z,100799.88
2022-10-19T21:07:59.018Z,100792.84
2022-10-19T21:10:31.716Z,100792.94
2022-10-19T21:13:01.289Z,100795.69
2022-10-19T21:15:30.788Z,100793.91
2022-10-19T21:18:00.351Z,100798.34
2022-10-19T21:20:30.507Z,100796.69
2022-10-19T21:23:01.079Z,100795.06
2022-10-19T21:25:33.165Z,100789.78
2022-10-19T21:28:02.732Z,100788.84
2022-10-19T21:30:32.225Z,100782.69
2022-10-19T21:33:01.734Z,100790.63
2022-10-19T21:35:31.290Z,100784.44
2022-10-19T21:38:01.053Z,100784.38
2022-10-19T21:40:33.139Z,100782.56
2022-10-19T21:43:02.665Z,100787.88
2022-10-19T21:45:32.195Z,100788.75
2022-10-19T21:48:01.755Z,100780.09
2022-10-19T21:50:31.285Z,100780.22
2022-10-19T21:53:00.811Z,100782.88
2022-10-19T21:55:35.894Z,100776.63
2022-10-19T21:58:05.971Z,100783.66
2022-10-19T22:00:36.481Z,100768.63
2022-10-19T22:03:06.473Z,100776.44
2022-10-19T22:05:36.093Z,100758.63
2022-10-19T22:08:05.692Z,100761.25
2022-10-19T22:10:40.375Z,100755.00
2022-10-19T22:13:09.910Z,100770.03
2022-10-19T22:15:39.970Z,100767.41
2022-10-19T22:18:09.779Z,100764.69
2022-10-19T22:20:39.697Z,100753.25
2022-10-19T22:23:10.283Z,100746.16
2022-10-19T22:25:42.404Z,100742.72
2022-10-19T22:28:11.931Z,100736.59
2022-10-19T22:30:45.021Z,100735.69
2022-10-19T22:33:14.680Z,100725.97
2022-10-19T22:35:44.253Z,100725.09
2022-10-19T22:38:13.846Z,100719.81
2022-10-19T22:40:45.969Z,100726.72
2022-10-19T22:43:15.539Z,100716.00
2022-10-19T22:45:45.126Z,100715.09
2022-10-19T22:48:14.692Z,100704.50
2022-10-19T22:50:44.245Z,100705.44
2022-10-19T22:53:13.945Z,100702.72
2022-10-19T22:55:46.104Z,100708.84
2022-10-19T22:58:15.698Z,100688.50
2022-10-19T23:00:45.293Z,100678.78
2022-10-19T23:03:14.932Z,100682.31
2022-10-19T23:05:44.498Z,100680.44
2022-10-19T23:08:14.109Z,100667.19
2022-10-19T23:10:46.280Z,100673.31
2022-10-19T23:13:15.932Z,100674.22
2022-10-19T23:15:46.300Z,100665.44
2022-10-19T23:18:16.117Z,100668.03
2022-10-19T23:20:46.041Z,100656.34
2022-10-19T23:23:15.665Z,100646.59
2022-10-19T23:25:48.287Z,100642.25
2022-10-19T23:28:18.255Z,100639.53
2022-10-19T23:30:47.984Z,100642.13
2022-10-19T23:33:17.569Z,100628.81
2022-10-19T23:35:47.152Z,100628.78
2022-10-19T23:38:16.710Z,100625.28
2022-10-19T23:40:48.880Z,100621.75
2022-10-19T23:43:18.515Z,100625.22
2022-10-19T23:45:48.232Z,100610.25
2022-10-19T23:48:17.773Z,100610.19
2022-10-19T23:50:47.433Z,100620.00
2022-10-19T23:53:16.998Z,100625.22
2022-10-19T23:55:49.108Z,100622.50
2022-10-19T23:58:18.678Z,100626.88
